Time;durP1;ratioP1;P1;durP2;ratioP2;P2;SDS_P1;SDS_P2;PMS_P1;PMS_P2;Temp;Humidity;BMP_temperature;BMP_pressure;BME280_temperature;BME280_humidity;BME280_pressure;Samples;Min_cycle;Max_cycle;Signal;HPM_P1;HPM_P2
2021/12/05 00:21:55;;;;;;;14.95;5.20;;;;;;;;;;4230048;28;20051;-81
2021/12/05 00:24:01;;;;;;;17.98;6.28;;;;;;;;;;4229960;28;20385;-81
2021/12/05 00:26:04;;;;;;;20.65;5.82;;;;;;;;;;4229707;28;20051;-81
2021/12/05 00:32:54;;;;;;;17.00;6.18;;;;;;;;;;4229637;28;20430;-81
2021/12/05 00:52:33;;;;;;;15.90;5.15;;;;;;;;;;4247539;27;20051;-81
2021/12/05 01:01:26;;;;;;;14.75;4.68;;;;;;;;;;4247497;27;20035;-81
2021/12/05 01:14:34;;;;;;;11.70;3.85;;;;;;;;;;4228726;28;20515;-81
2021/12/05 01:16:35;;;;;;;12.20;3.78;;;;;;;;;;4229601;28;20079;-81
2021/12/05 01:18:37;;;;;;;9.90;3.08;;;;;;;;;;4247953;27;20111;-81
2021/12/05 01:20:40;;;;;;;12.65;4.07;;;;;;;;;;4246154;27;20499;-81
2021/12/05 01:22:48;;;;;;;8.90;3.00;;;;;;;;;;4221256;28;20120;-81
2021/12/05 01:25:14;;;;;;;9.50;3.28;;;;;;;;;;4231410;28;20039;-81
2021/12/05 01:34:15;;;;;;;9.27;2.50;;;;;;;;;;4264836;27;20402;-81
2021/12/05 01:36:11;;;;;;;8.43;2.67;;;;;;;;;;4245513;28;20427;-81
2021/12/05 01:38:29;;;;;;;11.60;2.65;;;;;;;;;;4246071;28;20071;-81
2021/12/05 01:52:33;;;;;;;8.25;2.50;;;;;;;;;;4219331;27;20122;-82
2021/12/05 01:54:57;;;;;;;11.00;2.53;;;;;;;;;;4228870;28;20422;-82
2021/12/05 02:15:49;;;;;;;7.80;3.15;;;;;;;;;;4242046;28;20515;-81
2021/12/05 02:42:13;;;;;;;8.40;2.90;;;;;;;;;;4264084;27;20089;-80
2021/12/05 02:44:20;;;;;;;9.23;3.88;;;;;;;;;;4247861;27;20387;-80
2021/12/05 02:46:24;;;;;;;8.68;3.15;;;;;;;;;;4267129;27;20054;-79
2021/12/05 02:48:29;;;;;;;10.50;2.75;;;;;;;;;;4248772;27;20047;-80
2021/12/05 02:50:33;;;;;;;8.73;2.88;;;;;;;;;;4266848;27;20122;-81
2021/12/05 02:52:37;;;;;;;12.82;2.97;;;;;;;;;;4266794;27;20039;-81
2021/12/05 02:54:42;;;;;;;11.32;3.20;;;;;;;;;;4247788;27;20043;-81
2021/12/05 02:56:48;;;;;;;5.53;2.60;;;;;;;;;;4231096;28;20051;-81
2021/12/05 02:58:52;;;;;;;10.85;2.70;;;;;;;;;;4249813;27;20096;-81
2021/12/05 03:01:08;;;;;;;8.23;3.15;;;;;;;;;;4231290;28;20060;-81
2021/12/05 03:03:19;;;;;;;5.10;2.55;;;;;;;;;;4231502;28;20047;-81
2021/12/05 03:05:23;;;;;;;7.25;3.15;;;;;;;;;;4231569;28;20051;-81
2021/12/05 03:07:37;;;;;;;8.73;2.78;;;;;;;;;;4249257;27;20554;-81
2021/12/05 03:09:40;;;;;;;10.50;3.03;;;;;;;;;;4231387;28;20130;-81
2021/12/05 03:11:42;;;;;;;11.98;2.85;;;;;;;;;;4231751;28;20047;-81
2021/12/05 03:13:43;;;;;;;7.32;2.75;;;;;;;;;;4214247;28;20043;-80
2021/12/05 03:15:44;;;;;;;10.07;2.97;;;;;;;;;;4214529;28;20056;-80
2021/12/05 03:17:46;;;;;;;6.20;2.92;;;;;;;;;;4249575;27;20099;-80
2021/12/05 03:19:47;;;;;;;7.40;3.20;;;;;;;;;;4241558;27;20043;-81
2021/12/05 03:21:51;;;;;;;9.35;2.67;;;;;;;;;;4247248;27;20047;-81
2021/12/05 03:23:53;;;;;;;7.68;2.83;;;;;;;;;;4231484;28;20049;-81
2021/12/05 03:25:55;;;;;;;9.10;3.05;;;;;;;;;;4231110;28;20043;-81
2021/12/05 03:27:57;;;;;;;8.35;3.28;;;;;;;;;;4231464;28;20384;-81
2021/12/05 03:29:58;;;;;;;8.52;3.05;;;;;;;;;;4231215;28;20056;-81
2021/12/05 03:32:01;;;;;;;8.40;2.85;;;;;;;;;;4230994;28;20048;-80
2021/12/05 03:34:03;;;;;;;11.88;2.88;;;;;;;;;;4248802;27;20114;-81
2021/12/05 03:36:05;;;;;;;11.48;3.70;;;;;;;;;;4231495;28;20055;-81
2021/12/05 03:38:07;;;;;;;9.07;3.22;;;;;;;;;;4249334;27;20051;-81
2021/12/05 03:40:08;;;;;;;8.30;2.78;;;;;;;;;;4230955;27;20538;-81
2021/12/05 03:42:11;;;;;;;12.88;3.55;;;;;;;;;;4230965;28;20069;-80
2021/12/05 03:44:13;;;;;;;7.95;3.13;;;;;;;;;;4230891;28;20043;-80
2021/12/05 03:46:14;;;;;;;10.63;3.70;;;;;;;;;;4214135;28;20056;-80
2021/12/05 03:48:16;;;;;;;10.05;3.50;;;;;;;;;;4213237;28;20075;-80
2021/12/05 03:50:24;;;;;;;9.23;3.88;;;;;;;;;;4248791;27;20131;-80
2021/12/05 03:52:27;;;;;;;6.63;3.05;;;;;;;;;;4230689;28;20048;-80
2021/12/05 03:54:28;;;;;;;13.70;3.83;;;;;;;;;;4230543;28;20071;-81
2021/12/05 03:56:29;;;;;;;14.70;4.38;;;;;;;;;;4248974;27;20114;-80
2021/12/05 03:58:32;;;;;;;8.95;3.53;;;;;;;;;;4248507;27;20046;-80
2021/12/05 04:00:35;;;;;;;8.23;3.47;;;;;;;;;;4231987;27;20047;-80
2021/12/05 04:02:36;;;;;;;11.98;3.95;;;;;;;;;;4230996;28;20527;-80
2021/12/05 04:04:37;;;;;;;12.20;4.20;;;;;;;;;;4213329;28;20083;-80
2021/12/05 04:06:39;;;;;;;10.27;3.83;;;;;;;;;;4229690;28;20518;-81
2021/12/05 04:08:41;;;;;;;11.95;2.97;;;;;;;;;;4230351;28;20422;-81
2021/12/05 04:10:44;;;;;;;12.32;5.35;;;;;;;;;;4237743;27;20495;-81
2021/12/05 04:12:45;;;;;;;14.45;4.25;;;;;;;;;;4247141;27;20121;-81
2021/12/05 04:14:53;;;;;;;9.82;4.15;;;;;;;;;;4265554;27;20405;-81
2021/12/05 04:16:55;;;;;;;10.15;3.45;;;;;;;;;;4265289;27;20039;-81
2021/12/05 04:18:57;;;;;;;13.73;4.35;;;;;;;;;;4264905;27;20042;-81
2021/12/05 04:20:59;;;;;;;10.57;3.53;;;;;;;;;;4264882;27;20043;-81
2021/12/05 04:23:00;;;;;;;8.75;3.90;;;;;;;;;;4236270;27;20073;-80
2021/12/05 04:25:04;;;;;;;23.40;4.75;;;;;;;;;;4229863;28;20496;-80
2021/12/05 04:27:06;;;;;;;9.98;3.75;;;;;;;;;;4230475;28;20090;-80
2021/12/05 04:29:08;;;;;;;14.07;4.60;;;;;;;;;;4230206;28;20051;-80
2021/12/05 04:31:09;;;;;;;14.63;5.05;;;;;;;;;;4213621;28;20050;-80
2021/12/05 04:33:11;;;;;;;14.85;4.40;;;;;;;;;;4213587;28;20082;-80
2021/12/05 04:35:13;;;;;;;11.13;4.20;;;;;;;;;;4213379;28;20488;-80
2021/12/05 04:37:15;;;;;;;14.15;4.32;;;;;;;;;;4229695;28;20116;-80
2021/12/05 04:39:17;;;;;;;13.98;4.35;;;;;;;;;;4231466;27;20536;-81
2021/12/05 04:41:19;;;;;;;11.48;4.40;;;;;;;;;;4229849;28;20043;-80
2021/12/05 04:43:21;;;;;;;11.52;4.53;;;;;;;;;;4231278;28;20047;-81
2021/12/05 04:45:24;;;;;;;11.75;4.95;;;;;;;;;;4230852;28;20040;-80
2021/12/05 04:47:25;;;;;;;13.70;4.65;;;;;;;;;;4229064;28;20177;-80
2021/12/05 04:49:27;;;;;;;12.85;3.72;;;;;;;;;;4229699;28;20550;-80
2021/12/05 04:51:33;;;;;;;16.90;5.38;;;;;;;;;;4229983;28;20051;-81
2021/12/05 04:53:36;;;;;;;15.65;5.18;;;;;;;;;;4229307;28;20087;-81
2021/12/05 04:55:37;;;;;;;11.23;4.93;;;;;;;;;;4228922;28;20087;-80
2021/12/05 04:57:41;;;;;;;20.63;4.78;;;;;;;;;;4211574;28;20121;-80
2021/12/05 04:59:47;;;;;;;15.93;6.00;;;;;;;;;;4230119;28;20483;-80
2021/12/05 05:01:49;;;;;;;11.65;4.70;;;;;;;;;;4230459;28;20047;-80
2021/12/05 05:03:51;;;;;;;14.10;4.72;;;;;;;;;;4229346;28;20479;-80
2021/12/05 05:06:01;;;;;;;12.73;5.10;;;;;;;;;;4211008;28;20059;-80
2021/12/05 05:08:02;;;;;;;15.70;4.72;;;;;;;;;;4228872;28;20538;-80
2021/12/05 05:10:08;;;;;;;18.88;6.00;;;;;;;;;;4229297;28;20048;-80
2021/12/05 05:12:11;;;;;;;19.30;4.93;;;;;;;;;;4229596;28;20044;-80
2021/12/05 05:14:14;;;;;;;15.85;4.72;;;;;;;;;;4229298;27;20146;-80
2021/12/05 05:16:16;;;;;;;12.45;4.60;;;;;;;;;;4229022;28;20055;-81
2021/12/05 05:18:18;;;;;;;15.38;4.72;;;;;;;;;;4229884;28;20051;-80
2021/12/05 05:21:00;;;;;;;15.65;5.03;;;;;;;;;;4244380;27;20051;-80
2021/12/05 05:23:20;;;;;;;14.95;5.45;;;;;;;;;;4236654;27;20055;-80
2021/12/05 05:43:27;;;;;;;10.20;5.07;;;;;;;;;;4245872;28;20061;-80
2021/12/05 05:49:58;;;;;;;15.20;5.90;;;;;;;;;;4263969;27;20043;-80
2021/12/05 05:52:00;;;;;;;13.27;4.40;;;;;;;;;;4245252;28;20457;-80
2021/12/05 05:54:01;;;;;;;10.55;4.15;;;;;;;;;;4245727;28;20043;-80
2021/12/05 05:56:04;;;;;;;12.75;5.38;;;;;;;;;;4246025;28;20126;-80
2021/12/05 05:58:13;;;;;;;17.33;4.43;;;;;;;;;;4264465;27;20042;-80
2021/12/05 06:00:19;;;;;;;14.52;4.93;;;;;;;;;;4229073;28;20089;-80
2021/12/05 06:04:40;;;;;;;23.17;5.68;;;;;;;;;;4261999;27;20076;-80
2021/12/05 06:06:43;;;;;;;14.73;4.15;;;;;;;;;;4231072;28;20402;-79
2021/12/05 06:08:45;;;;;;;16.40;4.55;;;;;;;;;;4248683;27;20378;-81
2021/12/05 06:10:47;;;;;;;14.70;5.18;;;;;;;;;;4238350;28;20051;-80
2021/12/05 06:12:48;;;;;;;10.23;4.05;;;;;;;;;;4264101;27;20112;-80
2021/12/05 06:14:49;;;;;;;12.77;4.13;;;;;;;;;;4243799;28;20105;-81
2021/12/05 06:16:50;;;;;;;12.88;3.45;;;;;;;;;;4278388;27;20078;-80
2021/12/05 06:18:54;;;;;;;13.15;3.90;;;;;;;;;;4259965;27;20041;-81
2021/12/05 06:20:55;;;;;;;11.82;4.55;;;;;;;;;;4239303;27;20128;-81
2021/12/05 06:22:57;;;;;;;18.75;4.80;;;;;;;;;;4250825;27;20054;-81
2021/12/05 06:24:59;;;;;;;10.73;4.50;;;;;;;;;;4249784;27;20149;-80
2021/12/05 06:27:02;;;;;;;11.45;4.05;;;;;;;;;;4252474;27;20473;-81
2021/12/05 06:29:14;;;;;;;14.43;3.97;;;;;;;;;;4250062;27;20043;-82
2021/12/05 06:42:53;;;;;;;11.70;3.58;;;;;;;;;;4232202;28;20055;-81
2021/12/05 06:47:14;;;;;;;10.68;3.10;;;;;;;;;;4232256;28;20096;-81
2021/12/05 06:49:16;;;;;;;8.57;3.53;;;;;;;;;;4231906;28;20051;-81
2021/12/05 06:51:20;;;;;;;8.57;3.95;;;;;;;;;;4231665;28;20048;-81
2021/12/05 06:53:21;;;;;;;11.38;3.72;;;;;;;;;;4215009;28;20044;-81
2021/12/05 06:55:23;;;;;;;12.30;3.42;;;;;;;;;;4231911;28;20055;-81
2021/12/05 06:57:24;;;;;;;11.57;3.13;;;;;;;;;;4231821;28;20515;-81
2021/12/05 06:59:26;;;;;;;5.90;3.72;;;;;;;;;;4232057;28;20047;-81
2021/12/05 07:01:27;;;;;;;18.70;3.92;;;;;;;;;;4238771;27;20043;-81
2021/12/05 07:03:28;;;;;;;11.05;4.00;;;;;;;;;;4265946;27;20050;-81
2021/12/05 07:07:41;;;;;;;12.85;3.20;;;;;;;;;;4248770;27;20467;-81
2021/12/05 07:09:42;;;;;;;12.68;3.25;;;;;;;;;;4265428;27;20050;-81
2021/12/05 07:21:03;;;;;;;10.95;3.22;;;;;;;;;;4231506;28;20043;-81
2021/12/05 07:23:19;;;;;;;10.38;2.95;;;;;;;;;;4250388;27;20487;-81
2021/12/05 07:25:37;;;;;;;8.48;3.28;;;;;;;;;;4238121;27;20074;-81
2021/12/05 07:43:34;;;;;;;11.30;3.50;;;;;;;;;;4266872;27;20043;-81
2021/12/05 07:45:42;;;;;;;10.75;3.33;;;;;;;;;;4248935;27;20109;-81
2021/12/05 07:47:50;;;;;;;13.23;3.47;;;;;;;;;;4266503;27;20152;-81
2021/12/05 07:49:53;;;;;;;11.77;3.10;;;;;;;;;;4237338;27;20123;-81
2021/12/05 07:51:54;;;;;;;11.70;3.42;;;;;;;;;;4231689;28;20048;-81
2021/12/05 07:56:10;;;;;;;12.05;5.88;;;;;;;;;;4231342;28;20050;-81
2021/12/05 07:58:29;;;;;;;13.43;3.85;;;;;;;;;;4249175;27;20538;-81
2021/12/05 08:01:28;;;;;;;;;;;;;;;;;;4231340;28;20101;-81
2021/12/05 08:14:38;;;;;;;12.88;3.95;;;;;;;;;;4248564;27;20122;-82
2021/12/05 08:16:46;;;;;;;12.55;3.97;;;;;;;;;;4248111;27;20054;-81
2021/12/05 08:18:47;;;;;;;10.00;3.90;;;;;;;;;;4232533;27;20114;-81
2021/12/05 08:20:49;;;;;;;10.75;3.13;;;;;;;;;;4247822;27;20043;-81
2021/12/05 08:22:50;;;;;;;14.70;3.97;;;;;;;;;;4257504;27;20359;-81
2021/12/05 08:24:52;;;;;;;13.35;3.40;;;;;;;;;;4233292;27;20570;-81
2021/12/05 08:26:53;;;;;;;13.65;2.95;;;;;;;;;;4265650;27;20039;-81
2021/12/05 08:31:16;;;;;;;11.90;3.83;;;;;;;;;;4249126;27;20055;-81
2021/12/05 08:40:48;;;;;;;11.07;3.40;;;;;;;;;;4230869;27;20047;-81
2021/12/05 08:43:05;;;;;;;7.47;3.88;;;;;;;;;;4249018;27;20047;-81
2021/12/05 09:30:00;;;;;;;13.05;4.60;;;;;;;;;;4230125;28;20608;-81
2021/12/05 09:39:39;;;;;;;14.13;4.38;;;;;;;;;;4237276;28;20047;-81
2021/12/05 10:09:06;;;;;;;10.38;4.13;;;;;;;;;;4250526;27;20050;-80
2021/12/05 10:26:05;;;;;;;12.00;3.95;;;;;;;;;;4231850;28;20048;-81
2021/12/05 10:37:09;;;;;;;15.95;4.30;;;;;;;;;;4232721;28;20055;-81
2021/12/05 10:39:19;;;;;;;14.25;5.07;;;;;;;;;;4232702;28;20462;-80
2021/12/05 10:43:36;;;;;;;12.98;4.18;;;;;;;;;;4232703;28;20114;-81
2021/12/05 10:45:42;;;;;;;12.40;3.83;;;;;;;;;;4214750;28;20119;-81
2021/12/05 10:47:45;;;;;;;16.33;4.80;;;;;;;;;;4231457;28;20052;-81
2021/12/05 10:49:46;;;;;;;10.52;4.43;;;;;;;;;;4231243;28;20039;-81
2021/12/05 10:51:55;;;;;;;10.50;4.47;;;;;;;;;;4230918;28;20091;-81
2021/12/05 10:53:56;;;;;;;11.02;4.13;;;;;;;;;;4231249;28;20149;-81
2021/12/05 10:55:57;;;;;;;16.13;4.47;;;;;;;;;;4231237;28;20428;-81
2021/12/05 10:58:03;;;;;;;12.55;3.95;;;;;;;;;;4231294;28;20499;-81
2021/12/05 11:00:13;;;;;;;19.13;5.20;;;;;;;;;;4232291;28;20082;-81
2021/12/05 11:02:16;;;;;;;12.88;4.85;;;;;;;;;;4214506;28;20055;-81
2021/12/05 11:04:28;;;;;;;11.77;4.57;;;;;;;;;;4230185;28;20046;-81
2021/12/05 11:06:32;;;;;;;11.85;4.47;;;;;;;;;;4248318;27;20364;-82
2021/12/05 11:08:37;;;;;;;13.27;4.53;;;;;;;;;;4238749;27;20507;-81
2021/12/05 11:10:43;;;;;;;15.27;4.47;;;;;;;;;;4242206;27;20487;-81
2021/12/05 11:12:44;;;;;;;11.32;4.55;;;;;;;;;;4231006;28;20043;-81
2021/12/05 11:14:47;;;;;;;13.35;4.80;;;;;;;;;;4232114;28;20118;-81
2021/12/05 11:17:05;;;;;;;21.85;5.13;;;;;;;;;;4230753;28;20408;-81
2021/12/05 11:19:14;;;;;;;17.58;4.78;;;;;;;;;;4231010;28;20067;-81
2021/12/05 11:21:34;;;;;;;10.15;4.50;;;;;;;;;;4245008;27;20402;-81
2021/12/05 11:23:35;;;;;;;12.98;4.40;;;;;;;;;;4245512;27;20051;-81
2021/12/05 11:25:40;;;;;;;11.40;4.68;;;;;;;;;;4247191;27;20043;-81
2021/12/05 11:27:41;;;;;;;16.55;5.35;;;;;;;;;;4247938;27;20149;-81
2021/12/05 11:30:00;;;;;;;13.20;4.68;;;;;;;;;;4245729;27;20066;-81
2021/12/05 11:32:11;;;;;;;12.23;4.32;;;;;;;;;;4253422;27;20050;-81
2021/12/05 11:34:25;;;;;;;13.68;4.80;;;;;;;;;;4252323;27;20046;-81
2021/12/05 11:36:27;;;;;;;13.98;4.13;;;;;;;;;;4245917;27;20058;-81
2021/12/05 11:38:30;;;;;;;13.45;4.80;;;;;;;;;;4246247;27;20039;-81
2021/12/05 11:40:51;;;;;;;13.95;5.25;;;;;;;;;;4259541;27;20076;-81
2021/12/05 11:42:54;;;;;;;12.82;4.82;;;;;;;;;;4230364;28;20051;-81
2021/12/05 11:45:03;;;;;;;12.82;4.57;;;;;;;;;;4231154;28;20039;-81
2021/12/05 11:47:15;;;;;;;13.27;4.93;;;;;;;;;;4249690;27;20071;-81
2021/12/05 11:49:21;;;;;;;11.68;3.97;;;;;;;;;;4249382;27;20046;-82
2021/12/05 11:51:28;;;;;;;13.05;4.53;;;;;;;;;;4230945;28;20051;-82
2021/12/05 11:53:37;;;;;;;10.05;4.32;;;;;;;;;;4249220;27;20054;-81
2021/12/05 11:55:38;;;;;;;15.13;5.20;;;;;;;;;;4231380;28;20065;-82
2021/12/05 11:57:39;;;;;;;14.50;4.57;;;;;;;;;;4230571;28;20095;-81
2021/12/05 11:59:45;;;;;;;12.48;4.72;;;;;;;;;;4247141;27;20047;-81
2021/12/05 12:01:52;;;;;;;10.38;4.57;;;;;;;;;;4237207;27;20043;-81
2021/12/05 12:03:55;;;;;;;11.60;4.70;;;;;;;;;;4229694;28;20655;-81
2021/12/05 12:05:56;;;;;;;13.75;4.25;;;;;;;;;;4229970;28;20113;-81
2021/12/05 12:08:07;;;;;;;13.18;4.00;;;;;;;;;;4230151;28;20052;-81
2021/12/05 12:10:13;;;;;;;11.30;4.60;;;;;;;;;;4212939;28;20036;-81
2021/12/05 12:12:15;;;;;;;14.40;4.57;;;;;;;;;;4248036;27;20096;-81
2021/12/05 12:14:16;;;;;;;10.10;5.40;;;;;;;;;;4229708;28;20403;-82
2021/12/05 12:16:18;;;;;;;9.95;4.25;;;;;;;;;;4213058;28;20503;-82
2021/12/05 12:18:26;;;;;;;11.45;4.38;;;;;;;;;;4229827;28;20051;-82
2021/12/05 12:20:29;;;;;;;15.25;5.10;;;;;;;;;;4245539;27;20051;-82
2021/12/05 12:22:33;;;;;;;76.00;20.02;;;;;;;;;;4258052;27;20089;-80
2021/12/05 12:24:35;;;;;;;21.30;7.68;;;;;;;;;;4229647;28;20044;-80
2021/12/05 12:26:37;;;;;;;15.73;4.82;;;;;;;;;;4244509;27;20108;-81
2021/12/05 12:28:39;;;;;;;8.77;4.00;;;;;;;;;;4247571;27;20122;-80
2021/12/05 12:30:42;;;;;;;15.00;5.10;;;;;;;;;;4264556;27;20054;-80
2021/12/05 12:32:45;;;;;;;17.15;5.05;;;;;;;;;;4249037;27;20049;-80
2021/12/05 12:34:47;;;;;;;10.27;4.15;;;;;;;;;;4238838;27;20043;-79
2021/12/05 12:36:48;;;;;;;11.77;4.38;;;;;;;;;;4247011;27;20422;-80
2021/12/05 12:38:49;;;;;;;8.00;4.57;;;;;;;;;;4247307;27;20096;-81
2021/12/05 12:40:54;;;;;;;11.60;4.20;;;;;;;;;;4247099;27;20121;-82
2021/12/05 12:42:57;;;;;;;14.45;4.43;;;;;;;;;;4261911;27;20398;-82
2021/12/05 12:45:01;;;;;;;13.45;4.55;;;;;;;;;;4246530;27;20039;-81
2021/12/05 12:47:04;;;;;;;9.32;4.88;;;;;;;;;;4235336;27;20053;-81
2021/12/05 12:49:14;;;;;;;12.93;5.03;;;;;;;;;;4229415;28;20129;-82
2021/12/05 12:51:30;;;;;;;12.40;4.25;;;;;;;;;;4228615;28;20113;-81
2021/12/05 12:53:38;;;;;;;11.15;4.57;;;;;;;;;;4247776;27;20050;-82
2021/12/05 12:55:42;;;;;;;11.20;4.00;;;;;;;;;;4228908;28;20507;-82
2021/12/05 12:57:44;;;;;;;10.57;4.18;;;;;;;;;;4229865;28;20094;-81
2021/12/05 12:59:55;;;;;;;8.38;3.72;;;;;;;;;;4229503;28;20043;-81
2021/12/05 13:11:22;;;;;;;12.13;3.50;;;;;;;;;;4247588;27;20043;-82
2021/12/05 13:13:26;;;;;;;11.05;3.95;;;;;;;;;;4229658;28;20051;-82
2021/12/05 13:15:42;;;;;;;8.70;3.83;;;;;;;;;;4229732;28;20446;-82
2021/12/05 13:17:46;;;;;;;8.73;4.03;;;;;;;;;;4248017;27;20494;-82
2021/12/05 13:19:59;;;;;;;7.72;4.50;;;;;;;;;;4229265;28;20083;-82
2021/12/05 13:22:05;;;;;;;24.38;4.93;;;;;;;;;;4214075;28;20101;-82
2021/12/05 13:24:27;;;;;;;9.18;3.47;;;;;;;;;;4245515;27;20130;-82
2021/12/05 13:26:34;;;;;;;9.02;3.75;;;;;;;;;;4229099;28;20075;-82
2021/12/05 13:28:40;;;;;;;6.60;3.33;;;;;;;;;;4257975;27;20104;-82
2021/12/05 13:30:43;;;;;;;7.90;4.28;;;;;;;;;;4243160;27;20528;-82
2021/12/05 13:32:44;;;;;;;6.22;3.15;;;;;;;;;;4213416;28;20047;-83
2021/12/05 13:34:47;;;;;;;6.57;3.75;;;;;;;;;;4212349;28;20047;-83
2021/12/05 13:36:56;;;;;;;12.15;3.55;;;;;;;;;;4214627;28;20141;-82
2021/12/05 13:38:57;;;;;;;11.23;3.47;;;;;;;;;;4246657;27;20055;-82
2021/12/05 13:41:19;;;;;;;8.90;3.55;;;;;;;;;;4236015;28;20393;-81
2021/12/05 13:43:28;;;;;;;9.43;4.20;;;;;;;;;;4240822;28;20105;-82
2021/12/05 13:45:41;;;;;;;;;;;;;;;;;;4229572;28;20100;-82
2021/12/05 13:47:48;;;;;;;13.73;3.72;;;;;;;;;;4230624;28;19926;-81
2021/12/05 13:49:49;;;;;;;14.73;4.20;;;;;;;;;;4250155;27;20089;-81
2021/12/05 13:51:50;;;;;;;10.93;3.70;;;;;;;;;;4232998;28;20055;-82
2021/12/05 13:53:52;;;;;;;18.73;4.53;;;;;;;;;;4231260;28;20082;-81
2021/12/05 13:55:53;;;;;;;12.77;3.63;;;;;;;;;;4215304;28;20048;-82
2021/12/05 13:58:13;;;;;;;8.60;3.72;;;;;;;;;;4230166;28;20044;-82
2021/12/05 14:00:34;;;;;;;13.52;3.88;;;;;;;;;;4248122;28;20035;-81
2021/12/05 14:02:51;;;;;;;10.85;4.53;;;;;;;;;;4229435;28;20047;-82
2021/12/05 14:04:52;;;;;;;7.65;3.40;;;;;;;;;;4257934;27;20049;-82
2021/12/05 14:07:01;;;;;;;12.82;4.22;;;;;;;;;;4229602;28;20044;-82
2021/12/05 14:09:03;;;;;;;;;;;;;;;;;;4247701;28;20092;-80
2021/12/05 14:11:04;;;;;;;9.05;3.65;;;;;;;;;;4235308;28;19930;-81
2021/12/05 14:13:06;;;;;;;11.60;4.65;;;;;;;;;;4212411;28;20421;-82
2021/12/05 14:15:10;;;;;;;12.82;4.13;;;;;;;;;;4229572;28;20561;-82
2021/12/05 14:17:16;;;;;;;11.38;4.07;;;;;;;;;;4229233;28;20038;-82
2021/12/05 14:19:18;;;;;;;10.57;4.03;;;;;;;;;;4234801;28;20106;-82
2021/12/05 14:21:20;;;;;;;8.73;4.57;;;;;;;;;;4246023;28;20046;-82
2021/12/05 14:23:21;;;;;;;14.25;3.90;;;;;;;;;;4250880;27;20474;-81
2021/12/05 14:25:24;;;;;;;13.63;3.92;;;;;;;;;;4229163;28;20482;-81
2021/12/05 14:27:28;;;;;;;11.73;4.07;;;;;;;;;;4229270;28;20062;-82
2021/12/05 14:29:30;;;;;;;13.10;4.00;;;;;;;;;;4211899;28;20071;-82
2021/12/05 14:31:33;;;;;;;10.20;3.88;;;;;;;;;;4230609;28;20056;-82
2021/12/05 14:33:50;;;;;;;12.63;3.90;;;;;;;;;;4228922;28;20096;-82
2021/12/05 14:35:51;;;;;;;13.57;3.83;;;;;;;;;;4228737;28;20047;-82
2021/12/05 14:37:52;;;;;;;13.25;5.22;;;;;;;;;;4239610;27;20046;-81
2021/12/05 14:40:02;;;;;;;12.60;4.15;;;;;;;;;;4248555;27;20047;-82
2021/12/05 14:42:07;;;;;;;12.23;4.10;;;;;;;;;;4250450;27;20106;-81
2021/12/05 14:44:09;;;;;;;10.23;3.65;;;;;;;;;;4248370;27;20078;-81
2021/12/05 14:46:10;;;;;;;12.55;4.55;;;;;;;;;;4246259;27;20061;-81
2021/12/05 14:48:13;;;;;;;10.23;4.50;;;;;;;;;;4234068;28;20051;-81
2021/12/05 14:50:20;;;;;;;11.40;3.92;;;;;;;;;;4233304;28;20050;-82
2021/12/05 14:52:23;;;;;;;17.15;4.72;;;;;;;;;;4215604;28;20044;-81
2021/12/05 14:54:29;;;;;;;9.65;3.58;;;;;;;;;;4233316;28;20044;-82
2021/12/05 14:56:31;;;;;;;10.00;3.90;;;;;;;;;;4243632;27;20039;-81
2021/12/05 14:58:33;;;;;;;9.82;3.90;;;;;;;;;;4243321;27;20411;-81
2021/12/05 15:00:42;;;;;;;12.15;3.78;;;;;;;;;;4232920;28;20407;-81
2021/12/05 15:02:43;;;;;;;12.95;4.38;;;;;;;;;;4242627;27;20047;-82
2021/12/05 15:04:49;;;;;;;17.02;4.50;;;;;;;;;;4241000;27;20043;-81
2021/12/05 15:06:50;;;;;;;12.80;4.28;;;;;;;;;;4231244;28;20043;-81
2021/12/05 15:08:51;;;;;;;13.68;6.03;;;;;;;;;;4232588;28;20039;-81
2021/12/05 15:10:59;;;;;;;24.27;7.00;;;;;;;;;;4232291;28;20196;-82
2021/12/05 15:13:01;;;;;;;16.48;5.43;;;;;;;;;;4235615;27;20046;-81
2021/12/05 15:15:05;;;;;;;12.27;5.18;;;;;;;;;;4234131;27;20043;-81
2021/12/05 15:17:06;;;;;;;16.17;5.30;;;;;;;;;;4230963;28;20051;-81
2021/12/05 15:19:14;;;;;;;15.93;6.03;;;;;;;;;;4235212;27;20035;-82
2021/12/05 15:21:18;;;;;;;49.60;15.95;;;;;;;;;;4248887;27;20061;-81
2021/12/05 15:23:21;;;;;;;40.63;11.73;;;;;;;;;;4234213;27;20509;-81
2021/12/05 15:25:27;;;;;;;30.15;10.05;;;;;;;;;;4231376;28;20651;-81
2021/12/05 15:27:30;;;;;;;27.77;10.93;;;;;;;;;;4230655;28;20499;-82
2021/12/05 15:29:32;;;;;;;27.95;8.90;;;;;;;;;;4230096;28;20053;-82
2021/12/05 15:31:37;;;;;;;66.30;19.50;;;;;;;;;;4231709;28;20051;-82
2021/12/05 15:33:39;;;;;;;60.78;16.55;;;;;;;;;;4213023;28;20052;-82
2021/12/05 15:35:42;;;;;;;41.55;14.40;;;;;;;;;;4246601;27;20532;-82
2021/12/05 15:37:47;;;;;;;37.30;12.98;;;;;;;;;;4237588;27;20518;-81
2021/12/05 15:39:49;;;;;;;21.42;7.50;;;;;;;;;;4230388;27;20564;-81
2021/12/05 15:41:53;;;;;;;21.63;8.13;;;;;;;;;;4247315;27;20103;-81
2021/12/05 15:43:55;;;;;;;24.80;6.97;;;;;;;;;;4235814;27;20046;-82
2021/12/05 15:45:58;;;;;;;17.08;7.32;;;;;;;;;;4212836;28;20043;-81
2021/12/05 15:47:59;;;;;;;15.13;7.90;;;;;;;;;;4213555;28;20528;-81
2021/12/05 15:50:06;;;;;;;19.70;9.38;;;;;;;;;;4229819;28;20051;-81
2021/12/05 15:52:07;;;;;;;16.70;8.10;;;;;;;;;;4230393;28;20040;-82
2021/12/05 15:54:09;;;;;;;15.73;7.85;;;;;;;;;;4231572;28;20122;-82
2021/12/05 15:56:11;;;;;;;41.30;21.90;;;;;;;;;;4229580;28;20036;-83
2021/12/05 15:58:20;;;;;;;16.98;6.13;;;;;;;;;;4230004;28;20092;-82
2021/12/05 16:00:30;;;;;;;14.00;6.05;;;;;;;;;;4230210;28;20396;-82
2021/12/05 16:02:31;;;;;;;17.67;6.30;;;;;;;;;;4229701;28;20445;-82
2021/12/05 16:04:35;;;;;;;15.55;5.93;;;;;;;;;;4230549;28;20510;-82
2021/12/05 16:06:40;;;;;;;17.25;6.00;;;;;;;;;;4229617;28;20040;-82
2021/12/05 16:08:42;;;;;;;14.48;5.43;;;;;;;;;;4229827;28;20130;-82
2021/12/05 16:10:44;;;;;;;14.77;6.00;;;;;;;;;;4230916;28;20039;-82
2021/12/05 16:12:46;;;;;;;15.02;5.40;;;;;;;;;;4229600;28;20051;-82
2021/12/05 16:14:52;;;;;;;15.27;5.78;;;;;;;;;;4229315;28;20454;-82
2021/12/05 16:16:53;;;;;;;14.38;6.07;;;;;;;;;;4230779;28;20505;-81
2021/12/05 16:18:57;;;;;;;16.33;7.03;;;;;;;;;;4232233;27;20158;-81
2021/12/05 16:21:05;;;;;;;17.30;6.72;;;;;;;;;;4247415;27;20509;-81
2021/12/05 16:23:11;;;;;;;15.70;5.75;;;;;;;;;;4235395;27;20043;-81
2021/12/05 16:25:16;;;;;;;13.80;5.72;;;;;;;;;;4229739;28;20509;-82
2021/12/05 16:27:17;;;;;;;14.48;5.70;;;;;;;;;;4228845;28;20044;-81
2021/12/05 16:29:20;;;;;;;13.70;6.40;;;;;;;;;;4225264;28;20086;-82
2021/12/05 16:31:23;;;;;;;12.50;5.68;;;;;;;;;;4240121;27;20392;-82
2021/12/05 16:33:24;;;;;;;14.95;5.78;;;;;;;;;;4229262;28;20534;-82
2021/12/05 16:35:30;;;;;;;15.18;6.32;;;;;;;;;;4229468;28;20093;-82
2021/12/05 16:37:31;;;;;;;17.38;6.75;;;;;;;;;;4212366;28;20051;-81
2021/12/05 16:39:32;;;;;;;15.27;5.68;;;;;;;;;;4230662;28;20058;-81
2021/12/05 16:41:34;;;;;;;16.58;6.18;;;;;;;;;;4213528;28;20071;-81
2021/12/05 16:43:36;;;;;;;14.75;6.10;;;;;;;;;;4230405;28;20090;-82
2021/12/05 16:45:37;;;;;;;12.50;5.80;;;;;;;;;;4221879;28;20411;-82
2021/12/05 16:47:39;;;;;;;15.40;5.78;;;;;;;;;;4247251;27;20050;-82
2021/12/05 16:49:41;;;;;;;15.13;6.88;;;;;;;;;;4248488;27;20043;-82
2021/12/05 16:51:48;;;;;;;15.68;6.18;;;;;;;;;;4246793;27;20046;-82
2021/12/05 16:53:51;;;;;;;14.38;6.65;;;;;;;;;;4229754;28;20074;-82
2021/12/05 16:55:58;;;;;;;24.38;9.68;;;;;;;;;;4213188;28;20124;-82
2021/12/05 16:58:13;;;;;;;21.80;8.15;;;;;;;;;;4212876;28;20055;-81
2021/12/05 17:00:17;;;;;;;15.88;6.95;;;;;;;;;;4230521;28;20054;-81
2021/12/05 17:02:20;;;;;;;15.10;5.97;;;;;;;;;;4244165;27;20080;-82
2021/12/05 17:04:39;;;;;;;12.25;5.38;;;;;;;;;;4248541;27;20539;-81
2021/12/05 17:06:42;;;;;;;;;;;;;;;;;;4247618;27;20082;-81
2021/12/05 17:08:50;;;;;;;13.35;6.00;;;;;;;;;;4229917;28;19959;-81
2021/12/05 17:11:05;;;;;;;14.98;6.15;;;;;;;;;;4231262;28;20121;-82
2021/12/05 17:13:15;;;;;;;20.60;6.85;;;;;;;;;;4229765;28;20079;-82
2021/12/05 17:15:23;;;;;;;15.07;5.80;;;;;;;;;;4229756;28;20047;-82
2021/12/05 17:17:32;;;;;;;17.33;7.40;;;;;;;;;;4230957;28;20043;-82
2021/12/05 17:19:33;;;;;;;16.25;6.88;;;;;;;;;;4221337;28;20043;-81
2021/12/05 17:21:37;;;;;;;14.43;6.03;;;;;;;;;;4246727;27;20078;-82
2021/12/05 17:23:43;;;;;;;14.95;7.03;;;;;;;;;;4230913;27;20043;-82
2021/12/05 17:25:46;;;;;;;17.15;7.50;;;;;;;;;;4245730;27;20051;-81
2021/12/05 17:27:47;;;;;;;14.30;7.13;;;;;;;;;;4245996;27;20051;-82
2021/12/05 17:29:49;;;;;;;13.68;6.00;;;;;;;;;;4229533;28;20143;-82
2021/12/05 17:31:53;;;;;;;15.10;6.40;;;;;;;;;;4235760;27;20134;-81
2021/12/05 17:33:59;;;;;;;13.32;5.82;;;;;;;;;;4231143;28;20180;-81
2021/12/05 17:36:14;;;;;;;12.70;5.82;;;;;;;;;;4248020;27;20043;-82
2021/12/05 17:38:15;;;;;;;12.18;5.57;;;;;;;;;;4221932;28;20040;-81
2021/12/05 17:40:16;;;;;;;16.80;6.15;;;;;;;;;;4246386;27;20039;-81
2021/12/05 17:42:18;;;;;;;15.10;5.47;;;;;;;;;;4243147;28;20078;-81
2021/12/05 17:44:20;;;;;;;14.30;5.88;;;;;;;;;;4238436;28;20035;-81
2021/12/05 17:46:22;;;;;;;15.57;6.38;;;;;;;;;;4246037;28;20126;-82
2021/12/05 17:48:24;;;;;;;14.85;5.90;;;;;;;;;;4229654;28;20419;-82